EXS2AC EGNM-LGSK
Flight info
| Callsign | EXS2AC |
|---|---|
| Flight time | N/A |
| Altitude | 37000 |
| Route | LAMIX L603 DOLAS DCT NAVPI DCT DODEN DCT NEGIX DCT DINKU M867 XERUM DCT BAVAX DCT RADIZ DCT DOL DCT MONID DCT IDASI DCT EDALA DCT SOLGU DCT OSLUD DCT MEDUX UM867 KOGAT DCT ERANA UL737 TSL UL617 IBIDI |
| Aircraft | B738/M-SDE2E3FGHIRWXY/LB1 |
Departure
| Time | 2026-05-05 09:21 |
|---|---|
| Airport | Leeds Bradford Airport (EGNM) |
Arrival
| Time | N/A |
|---|---|
| Airport | Skiathos Island National Airport (LGSK) |
| Time | Latitude | Longitude | Altitude | Speed | Heading |
|---|---|---|---|---|---|
| 2026-05-05 09:00 | 53.86875 | -1.65617 | 664 ft | 0 kts | 1° |
| 2026-05-05 09:12 | 53.86874 | -1.65617 | 664 ft | 1 kts | 1° |
| 2026-05-05 09:12 | 53.86861 | -1.65618 | 664 ft | 3 kts | 1° |
| 2026-05-05 09:12 | 53.86841 | -1.65618 | 663 ft | 3 kts | 2° |
| 2026-05-05 09:12 | 53.86824 | -1.65623 | 663 ft | 3 kts | 43° |
| 2026-05-05 09:13 | 53.86816 | -1.65648 | 661 ft | 3 kts | 85° |
| 2026-05-05 09:13 | 53.86815 | -1.65668 | 661 ft | 2 kts | 91° |
| 2026-05-05 09:13 | 53.86815 | -1.65696 | 662 ft | 2 kts | 91° |
| 2026-05-05 09:13 | 53.86816 | -1.65701 | 662 ft | 0 kts | 91° |
| 2026-05-05 09:16 | 53.86816 | -1.65698 | 662 ft | 1 kts | 88° |
| 2026-05-05 09:17 | 53.86817 | -1.65658 | 661 ft | 6 kts | 88° |
| 2026-05-05 09:17 | 53.86816 | -1.65559 | 663 ft | 11 kts | 91° |
| 2026-05-05 09:17 | 53.86810 | -1.65436 | 661 ft | 10 kts | 117° |
| 2026-05-05 09:17 | 53.86737 | -1.65413 | 660 ft | 13 kts | 185° |
| 2026-05-05 09:18 | 53.86621 | -1.65426 | 662 ft | 18 kts | 184° |
| 2026-05-05 09:18 | 53.86501 | -1.65438 | 667 ft | 17 kts | 181° |
| 2026-05-05 09:18 | 53.86385 | -1.65450 | 676 ft | 16 kts | 183° |
| 2026-05-05 09:18 | 53.86273 | -1.65461 | 679 ft | 16 kts | 182° |
| 2026-05-05 09:19 | 53.86164 | -1.65399 | 679 ft | 20 kts | 138° |
| 2026-05-05 09:19 | 53.86044 | -1.65211 | 674 ft | 26 kts | 137° |
| 2026-05-05 09:19 | 53.85925 | -1.65019 | 665 ft | 19 kts | 118° |
| 2026-05-05 09:19 | 53.85891 | -1.64913 | 663 ft | 7 kts | 161° |
| 2026-05-05 09:20 | 53.85882 | -1.64965 | 663 ft | 0 kts | 312° |
| 2026-05-05 09:20 | 53.85994 | -1.65140 | 672 ft | 57 kts | 317° |
| 2026-05-05 09:20 | 53.86474 | -1.65880 | 667 ft | 128 kts | 317° |
| 2026-05-05 09:21 | 53.87256 | -1.67067 | 934 ft | 163 kts | 316° |
| 2026-05-05 09:21 | 53.88052 | -1.68350 | 1938 ft | 158 kts | 314° |
| 2026-05-05 09:21 | 53.88780 | -1.69803 | 2720 ft | 163 kts | 313° |
| 2026-05-05 09:21 | 53.89535 | -1.71292 | 3328 ft | 173 kts | 313° |
| 2026-05-05 09:22 | 53.90074 | -1.73255 | 3577 ft | 202 kts | 272° |
| 2026-05-05 09:22 | 53.89645 | -1.75584 | 3792 ft | 226 kts | 239° |
| 2026-05-05 09:22 | 53.89170 | -1.77174 | 4088 ft | 231 kts | 257° |
| 2026-05-05 09:23 | 53.88881 | -1.79911 | 4789 ft | 233 kts | 253° |
| 2026-05-05 09:23 | 53.87919 | -1.82094 | 5412 ft | 239 kts | 211° |
| 2026-05-05 09:23 | 53.86314 | -1.82702 | 6160 ft | 241 kts | 171° |
| 2026-05-05 09:24 | 53.84726 | -1.81832 | 6937 ft | 240 kts | 164° |
| 2026-05-05 09:24 | 53.83140 | -1.81011 | 7682 ft | 239 kts | 153° |
| 2026-05-05 09:24 | 53.81989 | -1.79068 | 8441 ft | 234 kts | 119° |
| 2026-05-05 09:24 | 53.81138 | -1.76654 | 8774 ft | 253 kts | 125° |
| 2026-05-05 09:25 | 53.79979 | -1.74194 | 8910 ft | 279 kts | 134° |
| 2026-05-05 09:25 | 53.78569 | -1.71802 | 9383 ft | 293 kts | 137° |
| 2026-05-05 09:25 | 53.77052 | -1.69390 | 9780 ft | 309 kts | 138° |
| 2026-05-05 09:25 | 53.75471 | -1.66933 | 10486 ft | 312 kts | 139° |
| 2026-05-05 09:26 | 53.73807 | -1.64364 | 10677 ft | 335 kts | 139° |
| 2026-05-05 09:26 | 53.72044 | -1.61643 | 11063 ft | 349 kts | 139° |
| 2026-05-05 09:26 | 53.70240 | -1.58854 | 11704 ft | 354 kts | 139° |
| 2026-05-05 09:26 | 53.68413 | -1.56032 | 12399 ft | 358 kts | 139° |
| 2026-05-05 09:27 | 53.66567 | -1.53185 | 13070 ft | 362 kts | 139° |
| 2026-05-05 09:27 | 53.64691 | -1.50298 | 13752 ft | 367 kts | 139° |
| 2026-05-05 09:27 | 53.62797 | -1.47385 | 14374 ft | 371 kts | 139° |
| 2026-05-05 09:27 | 53.60885 | -1.44449 | 15019 ft | 373 kts | 140° |
| 2026-05-05 09:28 | 53.58960 | -1.41495 | 15650 ft | 376 kts | 140° |
| 2026-05-05 09:28 | 53.57017 | -1.38517 | 16268 ft | 379 kts | 140° |
| 2026-05-05 09:28 | 53.55058 | -1.35516 | 16890 ft | 383 kts | 140° |
| 2026-05-05 09:28 | 53.53081 | -1.32493 | 17502 ft | 386 kts | 140° |
| 2026-05-05 09:29 | 53.51086 | -1.29449 | 18109 ft | 389 kts | 141° |
| 2026-05-05 09:29 | 53.49118 | -1.26283 | 18649 ft | 395 kts | 134° |
| 2026-05-05 09:29 | 53.47434 | -1.22611 | 19194 ft | 399 kts | 126° |
| 2026-05-05 09:29 | 53.46074 | -1.18523 | 19757 ft | 403 kts | 118° |
| 2026-05-05 09:30 | 53.44843 | -1.14283 | 20300 ft | 406 kts | 118° |
| 2026-05-05 09:30 | 53.43610 | -1.10015 | 20813 ft | 408 kts | 118° |
| 2026-05-05 09:30 | 53.42358 | -1.05725 | 21342 ft | 411 kts | 118° |
| 2026-05-05 09:30 | 53.41089 | -1.01424 | 21833 ft | 413 kts | 119° |
| 2026-05-05 09:31 | 53.39801 | -0.97094 | 22288 ft | 417 kts | 119° |
| 2026-05-05 09:31 | 53.38497 | -0.92728 | 22773 ft | 420 kts | 119° |
| 2026-05-05 09:31 | 53.37162 | -0.88371 | 23291 ft | 421 kts | 120° |
| 2026-05-05 09:31 | 53.35793 | -0.84023 | 23748 ft | 424 kts | 120° |
| 2026-05-05 09:32 | 53.34410 | -0.79656 | 24149 ft | 425 kts | 120° |
| 2026-05-05 09:32 | 53.33025 | -0.75269 | 24575 ft | 427 kts | 120° |
| 2026-05-05 09:32 | 53.31639 | -0.70870 | 24987 ft | 428 kts | 120° |
| 2026-05-05 09:32 | 53.30317 | -0.66396 | 25378 ft | 431 kts | 113° |
| 2026-05-05 09:33 | 53.29341 | -0.61624 | 25681 ft | 437 kts | 108° |
| 2026-05-05 09:33 | 53.28519 | -0.56708 | 25963 ft | 441 kts | 107° |
| 2026-05-05 09:33 | 53.27680 | -0.51768 | 26330 ft | 443 kts | 108° |
| 2026-05-05 09:33 | 53.26780 | -0.46847 | 26737 ft | 443 kts | 108° |
| 2026-05-05 09:34 | 53.25846 | -0.41941 | 27124 ft | 444 kts | 109° |
| 2026-05-05 09:34 | 53.24907 | -0.37018 | 27477 ft | 445 kts | 109° |
| 2026-05-05 09:34 | 53.23969 | -0.32086 | 27866 ft | 446 kts | 108° |
| 2026-05-05 09:34 | 53.23029 | -0.27142 | 28218 ft | 448 kts | 109° |
| 2026-05-05 09:35 | 53.22078 | -0.22192 | 28537 ft | 449 kts | 109° |
| 2026-05-05 09:35 | 53.20149 | -0.12217 | 29139 ft | 453 kts | 108° |
| 2026-05-05 09:35 | 53.19180 | -0.07216 | 29527 ft | 454 kts | 108° |
| 2026-05-05 09:36 | 53.18210 | -0.02225 | 30014 ft | 451 kts | 108° |
| 2026-05-05 09:36 | 53.17247 | 0.02734 | 30433 ft | 449 kts | 108° |
| 2026-05-05 09:36 | 53.16299 | 0.07615 | 30725 ft | 449 kts | 108° |
| 2026-05-05 09:36 | 53.15322 | 0.12631 | 31029 ft | 449 kts | 108° |
| 2026-05-05 09:37 | 53.14373 | 0.17499 | 31391 ft | 447 kts | 108° |
| 2026-05-05 09:37 | 53.13402 | 0.22469 | 31793 ft | 444 kts | 108° |
| 2026-05-05 09:37 | 53.12446 | 0.27345 | 32168 ft | 442 kts | 108° |
| 2026-05-05 09:37 | 53.11504 | 0.32142 | 32485 ft | 441 kts | 108° |
| 2026-05-05 09:38 | 53.10549 | 0.36987 | 32818 ft | 440 kts | 108° |
| 2026-05-05 09:38 | 53.09595 | 0.41817 | 33158 ft | 439 kts | 108° |
| 2026-05-05 09:38 | 53.08642 | 0.46635 | 33428 ft | 439 kts | 108° |
| 2026-05-05 09:38 | 53.07685 | 0.51453 | 33712 ft | 438 kts | 108° |
| 2026-05-05 09:39 | 53.06730 | 0.56255 | 34001 ft | 437 kts | 108° |
| 2026-05-05 09:39 | 53.05772 | 0.61055 | 34225 ft | 437 kts | 108° |
| 2026-05-05 09:39 | 53.04812 | 0.65855 | 34390 ft | 439 kts | 108° |
| 2026-05-05 09:39 | 53.03846 | 0.70674 | 34553 ft | 440 kts | 109° |
| 2026-05-05 09:40 | 53.02877 | 0.75497 | 34751 ft | 440 kts | 109° |
| 2026-05-05 09:40 | 53.01908 | 0.80312 | 34951 ft | 440 kts | 109° |
| 2026-05-05 09:40 | 52.99948 | 0.90011 | 34997 ft | 445 kts | 109° |
| 2026-05-05 09:41 | 52.97975 | 0.99729 | 35000 ft | 443 kts | 109° |
| 2026-05-05 09:41 | 52.95884 | 1.09322 | 34999 ft | 441 kts | 112° |
| 2026-05-05 09:42 | 52.93700 | 1.18816 | 35003 ft | 440 kts | 112° |
| 2026-05-05 09:42 | 52.91520 | 1.28293 | 35002 ft | 440 kts | 112° |
| 2026-05-05 09:43 | 52.89347 | 1.37775 | 35003 ft | 441 kts | 112° |
| 2026-05-05 09:43 | 52.87184 | 1.47206 | 35002 ft | 442 kts | 112° |
| 2026-05-05 09:44 | 52.84994 | 1.56714 | 34987 ft | 443 kts | 112° |
| 2026-05-05 09:44 | 52.82788 | 1.66250 | 35001 ft | 445 kts | 112° |
| 2026-05-05 09:45 | 52.80566 | 1.75810 | 35002 ft | 446 kts | 112° |
| 2026-05-05 09:45 | 52.78327 | 1.85400 | 35003 ft | 448 kts | 112° |
| 2026-05-05 09:46 | 52.76454 | 1.93387 | 34999 ft | 449 kts | 112° |
| 2026-05-05 09:46 | 52.74187 | 2.03019 | 34987 ft | 451 kts | 113° |
| 2026-05-05 09:47 | 52.71892 | 2.12724 | 34995 ft | 451 kts | 114° |
| 2026-05-05 09:47 | 52.69616 | 2.22309 | 34996 ft | 452 kts | 114° |
| 2026-05-05 09:48 | 52.67313 | 2.31963 | 34995 ft | 453 kts | 114° |
| 2026-05-05 09:48 | 52.64997 | 2.41624 | 34994 ft | 453 kts | 114° |
| 2026-05-05 09:49 | 52.62675 | 2.51274 | 34984 ft | 453 kts | 114° |
| 2026-05-05 09:49 | 52.60347 | 2.60907 | 34991 ft | 453 kts | 114° |
| 2026-05-05 09:50 | 52.58012 | 2.70526 | 34989 ft | 453 kts | 114° |
| 2026-05-05 09:50 | 52.55671 | 2.80131 | 34990 ft | 453 kts | 114° |
| 2026-05-05 09:51 | 52.53063 | 2.89510 | 34990 ft | 450 kts | 121° |
| 2026-05-05 09:51 | 52.50017 | 2.98480 | 34981 ft | 449 kts | 122° |
| 2026-05-05 09:52 | 52.46938 | 3.07394 | 34976 ft | 449 kts | 122° |
| 2026-05-05 09:52 | 52.43889 | 3.16329 | 34982 ft | 449 kts | 122° |
| 2026-05-05 09:53 | 52.40859 | 3.25269 | 34985 ft | 449 kts | 122° |
| 2026-05-05 09:53 | 52.37830 | 3.34198 | 34980 ft | 449 kts | 122° |
| 2026-05-05 09:54 | 52.34796 | 3.43115 | 34981 ft | 448 kts | 122° |
| 2026-05-05 09:54 | 52.31755 | 3.52017 | 34970 ft | 448 kts | 122° |
| 2026-05-05 09:55 | 52.28707 | 3.60905 | 34972 ft | 448 kts | 122° |
| 2026-05-05 09:55 | 52.25651 | 3.69781 | 34970 ft | 449 kts | 123° |
| 2026-05-05 09:56 | 52.22588 | 3.78650 | 34965 ft | 449 kts | 123° |
| 2026-05-05 09:56 | 52.19511 | 3.87524 | 34954 ft | 450 kts | 122° |
| 2026-05-05 09:57 | 52.16423 | 3.96401 | 34941 ft | 451 kts | 123° |
| 2026-05-05 09:57 | 52.13321 | 4.05286 | 34960 ft | 452 kts | 123° |
| 2026-05-05 09:58 | 52.10201 | 4.14193 | 34943 ft | 454 kts | 123° |
| 2026-05-05 09:58 | 52.07063 | 4.23116 | 34943 ft | 455 kts | 123° |
| 2026-05-05 09:59 | 52.03929 | 4.31999 | 34926 ft | 457 kts | 123° |
| 2026-05-05 09:59 | 52.00760 | 4.40949 | 34940 ft | 457 kts | 123° |
| 2026-05-05 10:00 | 51.97583 | 4.49892 | 34938 ft | 457 kts | 123° |
| 2026-05-05 10:00 | 51.94401 | 4.58815 | 34931 ft | 456 kts | 124° |
| 2026-05-05 10:01 | 51.91223 | 4.67696 | 34927 ft | 455 kts | 124° |
| 2026-05-05 10:01 | 51.88050 | 4.76533 | 34932 ft | 453 kts | 124° |
| 2026-05-05 10:02 | 51.84990 | 4.85023 | 34931 ft | 451 kts | 124° |
| 2026-05-05 10:02 | 51.81831 | 4.93761 | 34925 ft | 449 kts | 125° |
| 2026-05-05 10:03 | 51.78681 | 5.02443 | 34929 ft | 447 kts | 125° |
| 2026-05-05 10:03 | 51.75536 | 5.11080 | 34925 ft | 446 kts | 125° |
| 2026-05-05 10:04 | 51.72391 | 5.19688 | 34935 ft | 445 kts | 125° |
| 2026-05-05 10:04 | 51.69246 | 5.28269 | 34923 ft | 444 kts | 125° |
| 2026-05-05 10:05 | 51.66098 | 5.36827 | 34906 ft | 444 kts | 126° |
| 2026-05-05 10:05 | 51.62946 | 5.45369 | 34914 ft | 443 kts | 126° |
| 2026-05-05 10:06 | 51.59790 | 5.53891 | 34916 ft | 443 kts | 126° |
| 2026-05-05 10:06 | 51.56632 | 5.62392 | 34916 ft | 443 kts | 126° |
| 2026-05-05 10:07 | 51.53463 | 5.70892 | 34939 ft | 443 kts | 126° |
| 2026-05-05 10:07 | 51.50291 | 5.79374 | 34920 ft | 443 kts | 127° |
| 2026-05-05 10:08 | 51.47108 | 5.87855 | 34912 ft | 443 kts | 127° |
| 2026-05-05 10:08 | 51.43920 | 5.96323 | 34911 ft | 444 kts | 127° |
| 2026-05-05 10:09 | 51.40722 | 6.04790 | 34914 ft | 444 kts | 127° |
| 2026-05-05 10:09 | 51.37517 | 6.13247 | 34908 ft | 444 kts | 127° |
| 2026-05-05 10:10 | 51.34330 | 6.21630 | 34899 ft | 444 kts | 127° |
| 2026-05-05 10:10 | 51.31114 | 6.30061 | 34901 ft | 444 kts | 128° |
| 2026-05-05 10:11 | 51.27896 | 6.38467 | 34920 ft | 444 kts | 128° |
| 2026-05-05 10:11 | 51.24665 | 6.46881 | 34907 ft | 445 kts | 128° |
| 2026-05-05 10:12 | 51.21429 | 6.55282 | 34913 ft | 444 kts | 128° |
| 2026-05-05 10:12 | 51.18186 | 6.63672 | 34883 ft | 444 kts | 128° |
| 2026-05-05 10:13 | 51.14939 | 6.72045 | 34876 ft | 444 kts | 127° |
| 2026-05-05 10:13 | 51.11682 | 6.80416 | 34876 ft | 445 kts | 127° |
| 2026-05-05 10:14 | 51.08413 | 6.88792 | 34885 ft | 446 kts | 127° |
| 2026-05-05 10:14 | 51.05126 | 6.97185 | 34882 ft | 448 kts | 127° |
| 2026-05-05 10:15 | 51.01826 | 7.05586 | 34881 ft | 449 kts | 127° |
| 2026-05-05 10:15 | 50.98506 | 7.14010 | 34877 ft | 451 kts | 127° |
| 2026-05-05 10:16 | 50.95171 | 7.22445 | 34885 ft | 452 kts | 127° |
| 2026-05-05 10:16 | 50.91824 | 7.30883 | 34887 ft | 452 kts | 128° |
| 2026-05-05 10:17 | 50.88472 | 7.39309 | 34886 ft | 452 kts | 128° |
| 2026-05-05 10:17 | 50.85110 | 7.47729 | 34878 ft | 452 kts | 128° |
| 2026-05-05 10:18 | 50.81772 | 7.56065 | 34856 ft | 451 kts | 128° |
| 2026-05-05 10:18 | 50.78409 | 7.64434 | 34868 ft | 450 kts | 128° |
| 2026-05-05 10:19 | 50.75048 | 7.72773 | 34882 ft | 450 kts | 128° |
| 2026-05-05 10:19 | 50.71680 | 7.81099 | 34882 ft | 451 kts | 128° |
| 2026-05-05 10:20 | 50.68303 | 7.89423 | 34875 ft | 451 kts | 128° |
| 2026-05-05 10:20 | 50.64922 | 7.97735 | 34871 ft | 449 kts | 128° |
| 2026-05-05 10:21 | 50.61550 | 8.05999 | 34857 ft | 448 kts | 128° |
| 2026-05-05 10:21 | 50.57993 | 8.13996 | 34864 ft | 443 kts | 134° |
| 2026-05-05 10:22 | 50.54112 | 8.21479 | 34858 ft | 441 kts | 135° |
| 2026-05-05 10:22 | 50.50229 | 8.28943 | 34856 ft | 440 kts | 135° |
| 2026-05-05 10:23 | 50.46393 | 8.36426 | 34841 ft | 439 kts | 134° |
| 2026-05-05 10:23 | 50.42570 | 8.43905 | 34859 ft | 439 kts | 135° |
| 2026-05-05 10:24 | 50.38739 | 8.51372 | 34847 ft | 440 kts | 135° |
| 2026-05-05 10:24 | 50.34743 | 8.58582 | 34851 ft | 437 kts | 139° |
| 2026-05-05 10:25 | 50.30570 | 8.65474 | 34859 ft | 436 kts | 139° |
| 2026-05-05 10:25 | 50.26389 | 8.72345 | 34855 ft | 436 kts | 139° |
| 2026-05-05 10:26 | 50.22222 | 8.79244 | 34860 ft | 436 kts | 139° |
| 2026-05-05 10:26 | 50.18091 | 8.86102 | 34857 ft | 437 kts | 139° |
| 2026-05-05 10:27 | 50.13925 | 8.93010 | 34858 ft | 437 kts | 139° |
| 2026-05-05 10:27 | 50.09756 | 8.99904 | 34857 ft | 437 kts | 139° |
| 2026-05-05 10:28 | 50.05581 | 9.06788 | 34853 ft | 437 kts | 139° |
| 2026-05-05 10:28 | 50.01405 | 9.13654 | 34858 ft | 437 kts | 139° |
| 2026-05-05 10:29 | 49.97223 | 9.20511 | 34857 ft | 437 kts | 139° |
| 2026-05-05 10:29 | 49.93037 | 9.27356 | 34860 ft | 437 kts | 139° |
| 2026-05-05 10:30 | 49.88848 | 9.34189 | 34861 ft | 437 kts | 139° |
| 2026-05-05 10:30 | 49.84657 | 9.41005 | 34863 ft | 437 kts | 139° |
| 2026-05-05 10:31 | 49.80460 | 9.47813 | 34846 ft | 437 kts | 139° |
| 2026-05-05 10:31 | 49.76269 | 9.54593 | 34840 ft | 436 kts | 139° |
| 2026-05-05 10:32 | 49.72075 | 9.61360 | 34847 ft | 435 kts | 139° |
| 2026-05-05 10:32 | 49.67890 | 9.68095 | 34856 ft | 434 kts | 139° |
| 2026-05-05 10:33 | 49.63711 | 9.74801 | 34851 ft | 433 kts | 139° |
| 2026-05-05 10:33 | 49.59560 | 9.81445 | 34860 ft | 433 kts | 139° |
| 2026-05-05 10:34 | 49.55378 | 9.88122 | 34857 ft | 433 kts | 139° |
| 2026-05-05 10:34 | 49.51194 | 9.94784 | 34848 ft | 432 kts | 139° |
| 2026-05-05 10:35 | 49.47715 | 10.00310 | 34860 ft | 433 kts | 139° |
| 2026-05-05 10:35 | 49.43522 | 10.06955 | 34860 ft | 433 kts | 139° |
| 2026-05-05 10:36 | 49.39324 | 10.13590 | 34845 ft | 433 kts | 139° |
| 2026-05-05 10:36 | 49.35117 | 10.20223 | 34851 ft | 434 kts | 139° |
| 2026-05-05 10:37 | 49.30900 | 10.26857 | 34860 ft | 434 kts | 139° |
| 2026-05-05 10:37 | 49.26679 | 10.33480 | 34853 ft | 434 kts | 140° |
| 2026-05-05 10:38 | 49.22248 | 10.39676 | 34856 ft | 426 kts | 152° |
| 2026-05-05 10:38 | 49.17185 | 10.44284 | 34857 ft | 423 kts | 155° |
| 2026-05-05 10:39 | 49.12098 | 10.48818 | 34862 ft | 423 kts | 154° |
| 2026-05-05 10:39 | 49.07027 | 10.53395 | 34860 ft | 423 kts | 154° |
| 2026-05-05 10:40 | 49.01969 | 10.57980 | 34866 ft | 423 kts | 154° |
| 2026-05-05 10:40 | 48.96921 | 10.62551 | 34836 ft | 422 kts | 154° |
| 2026-05-05 10:41 | 48.91876 | 10.67106 | 34847 ft | 422 kts | 154° |
| 2026-05-05 10:41 | 48.86827 | 10.71654 | 34854 ft | 422 kts | 154° |
| 2026-05-05 10:42 | 48.79542 | 10.79225 | 34826 ft | 432 kts | 138° |
| 2026-05-05 10:43 | 48.75507 | 10.86020 | 34837 ft | 434 kts | 136° |
| 2026-05-05 10:43 | 48.71496 | 10.92871 | 34827 ft | 435 kts | 137° |